sensor_id;sensor_type;location;lat;lon;timestamp;pressure;altitude;pressure_sealevel;temperature;humidity
8523;BME280;4299;42.202;24.736;2023-03-14T00:02:13;100110.66;;;2.35;nan
8523;BME280;4299;42.202;24.736;2023-03-14T00:04:40;100108.91;;;2.37;nan
8523;BME280;4299;42.202;24.736;2023-03-14T00:07:07;100105.41;;;2.38;nan
8523;BME280;4299;42.202;24.736;2023-03-14T00:09:33;100105.53;;;2.29;nan
8523;BME280;4299;42.202;24.736;2023-03-14T00:12:00;100107.38;;;2.21;nan
8523;BME280;4299;42.202;24.736;2023-03-14T00:14:30;100097.88;;;2.12;nan
8523;BME280;4299;42.202;24.736;2023-03-14T00:16:57;100104.03;;;2.10;nan
8523;BME280;4299;42.202;24.736;2023-03-14T00:19:24;100097.16;;;2.00;nan
8523;BME280;4299;42.202;24.736;2023-03-14T00:21:50;100094.84;;;1.75;nan
8523;BME280;4299;42.202;24.736;2023-03-14T00:24:17;100095.88;;;1.59;nan
8523;BME280;4299;42.202;24.736;2023-03-14T00:26:43;100089.94;;;1.42;nan
8523;BME280;4299;42.202;24.736;2023-03-14T00:29:10;100085.72;;;1.29;nan
8523;BME280;4299;42.202;24.736;2023-03-14T00:31:38;100091.00;;;1.23;nan
8523;BME280;4299;42.202;24.736;2023-03-14T00:34:06;100094.63;;;1.06;nan
8523;BME280;4299;42.202;24.736;2023-03-14T00:36:32;100081.69;;;0.94;nan
8523;BME280;4299;42.202;24.736;2023-03-14T00:38:59;100080.06;;;0.80;nan
8523;BME280;4299;42.202;24.736;2023-03-14T00:41:25;100068.84;;;0.64;nan
8523;BME280;4299;42.202;24.736;2023-03-14T00:43:52;100074.16;;;0.49;nan
8523;BME280;4299;42.202;24.736;2023-03-14T00:46:19;100069.88;;;0.38;nan
8523;BME280;4299;42.202;24.736;2023-03-14T00:48:47;100069.91;;;0.29;nan
8523;BME280;4299;42.202;24.736;2023-03-14T00:51:14;100067.38;;;0.17;nan
8523;BME280;4299;42.202;24.736;2023-03-14T00:53:41;100063.09;;;0.07;nan
8523;BME280;4299;42.202;24.736;2023-03-14T00:56:10;100060.50;;;0.07;nan
8523;BME280;4299;42.202;24.736;2023-03-14T00:58:37;100051.81;;;0.02;nan
8523;BME280;4299;42.202;24.736;2023-03-14T01:01:09;100050.94;;;0.03;nan
8523;BME280;4299;42.202;24.736;2023-03-14T01:03:36;100043.97;;;0.02;nan
8523;BME280;4299;42.202;24.736;2023-03-14T01:06:13;100041.41;;;-0.01;nan
8523;BME280;4299;42.202;24.736;2023-03-14T01:08:40;100037.09;;;-0.08;nan
8523;BME280;4299;42.202;24.736;2023-03-14T01:11:08;100025.81;;;-0.10;nan
8523;BME280;4299;42.202;24.736;2023-03-14T01:13:35;100028.41;;;-0.12;nan
8523;BME280;4299;42.202;24.736;2023-03-14T01:16:03;100024.06;;;-0.11;nan
8523;BME280;4299;42.202;24.736;2023-03-14T01:18:32;100032.78;;;-0.15;nan
8523;BME280;4299;42.202;24.736;2023-03-14T01:20:58;100027.63;;;-0.24;nan
8523;BME280;4299;42.202;24.736;2023-03-14T01:23:26;100027.63;;;-0.33;nan
8523;BME280;4299;42.202;24.736;2023-03-14T01:25:53;100029.44;;;-0.48;nan
8523;BME280;4299;42.202;24.736;2023-03-14T01:28:20;100026.84;;;-0.55;nan
8523;BME280;4299;42.202;24.736;2023-03-14T01:30:47;100019.06;;;-0.61;nan
8523;BME280;4299;42.202;24.736;2023-03-14T01:33:13;100031.19;;;-0.65;nan
8523;BME280;4299;42.202;24.736;2023-03-14T01:35:40;100029.50;;;-0.73;nan
8523;BME280;4299;42.202;24.736;2023-03-14T01:38:06;100026.91;;;-0.81;nan
8523;BME280;4299;42.202;24.736;2023-03-14T01:40:41;100024.28;;;-0.87;nan
8523;BME280;4299;42.202;24.736;2023-03-14T01:43:14;100015.66;;;-0.89;nan
8523;BME280;4299;42.202;24.736;2023-03-14T01:48:54;100021.72;;;-1.01;nan
8523;BME280;4299;42.202;24.736;2023-03-14T01:51:25;100024.31;;;-1.08;nan
8523;BME280;4299;42.202;24.736;2023-03-14T01:53:56;100016.53;;;-1.11;nan
8523;BME280;4299;42.202;24.736;2023-03-14T01:56:27;100007.00;;;-1.12;nan
8523;BME280;4299;42.202;24.736;2023-03-14T01:58:54;100012.19;;;-1.09;nan
8523;BME280;4299;42.202;24.736;2023-03-14T02:01:23;100015.69;;;-1.10;nan
8523;BME280;4299;42.202;24.736;2023-03-14T02:03:53;100005.28;;;-1.10;nan
8523;BME280;4299;42.202;24.736;2023-03-14T02:06:24;100012.19;;;-1.09;nan
8523;BME280;4299;42.202;24.736;2023-03-14T02:08:52;100006.97;;;-1.09;nan
8523;BME280;4299;42.202;24.736;2023-03-14T02:11:20;100007.84;;;-1.09;nan
8523;BME280;4299;42.202;24.736;2023-03-14T02:13:49;100007.00;;;-1.06;nan
8523;BME280;4299;42.202;24.736;2023-03-14T02:16:16;100000.91;;;-1.08;nan
8523;BME280;4299;42.202;24.736;2023-03-14T02:18:42;100007.00;;;-1.05;nan
8523;BME280;4299;42.202;24.736;2023-03-14T02:21:13;99993.13;;;-1.05;nan
8523;BME280;4299;42.202;24.736;2023-03-14T02:23:48;99998.31;;;-1.05;nan
8523;BME280;4299;42.202;24.736;2023-03-14T02:26:21;99995.75;;;-1.10;nan
8523;BME280;4299;42.202;24.736;2023-03-14T02:28:51;99996.56;;;-1.09;nan
8523;BME280;4299;42.202;24.736;2023-03-14T02:31:19;100002.66;;;-1.06;nan
8523;BME280;4299;42.202;24.736;2023-03-14T02:33:47;100001.78;;;-1.03;nan
8523;BME280;4299;42.202;24.736;2023-03-14T02:36:14;100006.13;;;-1.04;nan
8523;BME280;4299;42.202;24.736;2023-03-14T02:38:47;100002.66;;;-0.97;nan
8523;BME280;4299;42.202;24.736;2023-03-14T02:41:14;100001.78;;;-1.00;nan
8523;BME280;4299;42.202;24.736;2023-03-14T02:43:41;99996.56;;;-0.91;nan
8523;BME280;4299;42.202;24.736;2023-03-14T02:46:10;100000.00;;;-0.79;nan
8523;BME280;4299;42.202;24.736;2023-03-14T02:48:40;100008.66;;;-0.69;nan
8523;BME280;4299;42.202;24.736;2023-03-14T02:51:07;100005.16;;;-0.62;nan
8523;BME280;4299;42.202;24.736;2023-03-14T02:53:36;100006.00;;;-0.57;nan
8523;BME280;4299;42.202;24.736;2023-03-14T02:56:03;100004.25;;;-0.50;nan
8523;BME280;4299;42.202;24.736;2023-03-14T02:58:30;100010.31;;;-0.44;nan
8523;BME280;4299;42.202;24.736;2023-03-14T03:00:57;100016.38;;;-0.37;nan
8523;BME280;4299;42.202;24.736;2023-03-14T03:03:25;100011.16;;;-0.32;nan
8523;BME280;4299;42.202;24.736;2023-03-14T03:05:53;100015.50;;;-0.37;nan
8523;BME280;4299;42.202;24.736;2023-03-14T03:08:22;100025.94;;;-0.44;nan
8523;BME280;4299;42.202;24.736;2023-03-14T03:10:49;100022.47;;;-0.46;nan
8523;BME280;4299;42.202;24.736;2023-03-14T03:13:16;100024.22;;;-0.45;nan
8523;BME280;4299;42.202;24.736;2023-03-14T03:15:44;100012.06;;;-0.46;nan
8523;BME280;4299;42.202;24.736;2023-03-14T03:18:11;100015.50;;;-0.44;nan
8523;BME280;4299;42.202;24.736;2023-03-14T03:20:39;100024.19;;;-0.42;nan
8523;BME280;4299;42.202;24.736;2023-03-14T03:23:05;100012.06;;;-0.49;nan
8523;BME280;4299;42.202;24.736;2023-03-14T03:25:32;100018.16;;;-0.47;nan
8523;BME280;4299;42.202;24.736;2023-03-14T03:27:59;100010.34;;;-0.47;nan
8523;BME280;4299;42.202;24.736;2023-03-14T03:30:26;100008.59;;;-0.48;nan
8523;BME280;4299;42.202;24.736;2023-03-14T03:32:52;100008.59;;;-0.46;nan
8523;BME280;4299;42.202;24.736;2023-03-14T03:35:19;100004.25;;;-0.47;nan
8523;BME280;4299;42.202;24.736;2023-03-14T03:37:47;100006.84;;;-0.43;nan
8523;BME280;4299;42.202;24.736;2023-03-14T03:40:13;100005.09;;;-0.37;nan
8523;BME280;4299;42.202;24.736;2023-03-14T03:42:40;100007.66;;;-0.36;nan
8523;BME280;4299;42.202;24.736;2023-03-14T03:45:08;100012.00;;;-0.33;nan
8523;BME280;4299;42.202;24.736;2023-03-14T03:47:34;100008.53;;;-0.29;nan
8523;BME280;4299;42.202;24.736;2023-03-14T03:50:01;100005.94;;;-0.31;nan
8523;BME280;4299;42.202;24.736;2023-03-14T03:52:28;100003.34;;;-0.29;nan
8523;BME280;4299;42.202;24.736;2023-03-14T03:54:56;99994.63;;;-0.25;nan
8523;BME280;4299;42.202;24.736;2023-03-14T03:57:23;99999.84;;;-0.31;nan
8523;BME280;4299;42.202;24.736;2023-03-14T03:59:50;100007.72;;;-0.48;nan
8523;BME280;4299;42.202;24.736;2023-03-14T04:02:16;99999.97;;;-0.62;nan
8523;BME280;4299;42.202;24.736;2023-03-14T04:04:43;100000.84;;;-0.66;nan
8523;BME280;4299;42.202;24.736;2023-03-14T04:07:10;99997.38;;;-0.71;nan
8523;BME280;4299;42.202;24.736;2023-03-14T04:09:39;99990.47;;;-0.84;nan
8523;BME280;4299;42.202;24.736;2023-03-14T04:12:07;99989.63;;;-0.92;nan
8523;BME280;4299;42.202;24.736;2023-03-14T04:14:34;99993.13;;;-1.05;nan
8523;BME280;4299;42.202;24.736;2023-03-14T04:17:00;99993.13;;;-1.11;nan
8523;BME280;4299;42.202;24.736;2023-03-14T04:19:27;99991.38;;;-1.15;nan
8523;BME280;4299;42.202;24.736;2023-03-14T04:21:54;99991.38;;;-1.12;nan
8523;BME280;4299;42.202;24.736;2023-03-14T04:24:20;99980.97;;;-1.12;nan
8523;BME280;4299;42.202;24.736;2023-03-14T04:26:47;99985.31;;;-1.11;nan
8523;BME280;4299;42.202;24.736;2023-03-14T04:29:15;99980.13;;;-1.10;nan
8523;BME280;4299;42.202;24.736;2023-03-14T04:31:42;99979.25;;;-1.10;nan
8523;BME280;4299;42.202;24.736;2023-03-14T04:34:08;99980.97;;;-1.12;nan
8523;BME280;4299;42.202;24.736;2023-03-14T04:36:35;99968.84;;;-1.07;nan
8523;BME280;4299;42.202;24.736;2023-03-14T04:39:02;99968.84;;;-1.04;nan
8523;BME280;4299;42.202;24.736;2023-03-14T04:41:29;99971.44;;;-1.04;nan
8523;BME280;4299;42.202;24.736;2023-03-14T04:43:56;99974.03;;;-1.06;nan
8523;BME280;4299;42.202;24.736;2023-03-14T04:46:24;99968.84;;;-1.07;nan
8523;BME280;4299;42.202;24.736;2023-03-14T04:48:50;99969.69;;;-1.08;nan
8523;BME280;4299;42.202;24.736;2023-03-14T04:51:17;99972.31;;;-1.11;nan
8523;BME280;4299;42.202;24.736;2023-03-14T04:53:43;99981.84;;;-1.10;nan
8523;BME280;4299;42.202;24.736;2023-03-14T04:56:10;99984.44;;;-1.04;nan
8523;BME280;4299;42.202;24.736;2023-03-14T04:58:38;99986.16;;;-0.97;nan
8523;BME280;4299;42.202;24.736;2023-03-14T05:01:05;99984.41;;;-0.86;nan
8523;BME280;4299;42.202;24.736;2023-03-14T05:03:34;99982.66;;;-0.75;nan
8523;BME280;4299;42.202;24.736;2023-03-14T05:06:03;99981.75;;;-0.66;nan
8523;BME280;4299;42.202;24.736;2023-03-14T05:08:30;99997.34;;;-0.54;nan
8523;BME280;4299;42.202;24.736;2023-03-14T05:10:57;99998.16;;;-0.42;nan
8523;BME280;4299;42.202;24.736;2023-03-14T05:13:24;100000.72;;;-0.31;nan
8523;BME280;4299;42.202;24.736;2023-03-14T05:15:51;99996.31;;;-0.15;nan
8523;BME280;4299;42.202;24.736;2023-03-14T05:18:19;99997.94;;;0.07;nan
8523;BME280;4299;42.202;24.736;2023-03-14T05:20:50;99987.38;;;0.25;nan
8523;BME280;4299;42.202;24.736;2023-03-14T05:23:16;99995.09;;;0.44;nan
8523;BME280;4299;42.202;24.736;2023-03-14T05:25:43;99995.81;;;0.61;nan
8523;BME280;4299;42.202;24.736;2023-03-14T05:28:10;100011.28;;;0.82;nan
8523;BME280;4299;42.202;24.736;2023-03-14T05:30:37;100005.94;;;0.97;nan
8523;BME280;4299;42.202;24.736;2023-03-14T05:33:03;100009.34;;;1.08;nan
8523;BME280;4299;42.202;24.736;2023-03-14T05:35:30;100007.47;;;1.20;nan
8523;BME280;4299;42.202;24.736;2023-03-14T05:37:58;100010.84;;;1.31;nan
8523;BME280;4299;42.202;24.736;2023-03-14T05:40:25;100001.13;;;1.45;nan
8523;BME280;4299;42.202;24.736;2023-03-14T05:42:52;100008.81;;;1.57;nan
8523;BME280;4299;42.202;24.736;2023-03-14T05:45:18;99994.72;;;1.70;nan
8523;BME280;4299;42.202;24.736;2023-03-14T05:47:45;100003.31;;;1.81;nan
8523;BME280;4299;42.202;24.736;2023-03-14T05:50:11;99997.88;;;1.97;nan
8523;BME280;4299;42.202;24.736;2023-03-14T05:52:38;100008.28;;;2.00;nan
8523;BME280;4299;42.202;24.736;2023-03-14T05:55:07;100004.59;;;2.13;nan
8523;BME280;4299;42.202;24.736;2023-03-14T05:57:34;99999.22;;;2.25;nan
8523;BME280;4299;42.202;24.736;2023-03-14T06:00:00;99994.66;;;2.39;nan
8523;BME280;4299;42.202;24.736;2023-03-14T06:02:27;100003.16;;;2.53;nan
8523;BME280;4299;42.202;24.736;2023-03-14T06:04:54;100005.56;;;2.65;nan
8523;BME280;4299;42.202;24.736;2023-03-14T06:07:21;100006.28;;;2.77;nan
8523;BME280;4299;42.202;24.736;2023-03-14T06:09:47;99991.31;;;2.85;nan
8523;BME280;4299;42.202;24.736;2023-03-14T06:12:15;99999.88;;;2.93;nan
8523;BME280;4299;42.202;24.736;2023-03-14T06:14:42;99992.72;;;3.04;nan
8523;BME280;4299;42.202;24.736;2023-03-14T06:17:09;99994.28;;;3.14;nan
8523;BME280;4299;42.202;24.736;2023-03-14T06:19:35;99996.69;;;3.25;nan
8523;BME280;4299;42.202;24.736;2023-03-14T06:22:02;99995.59;;;3.36;nan
8523;BME280;4299;42.202;24.736;2023-03-14T06:24:29;99990.22;;;3.44;nan
8523;BME280;4299;42.202;24.736;2023-03-14T06:26:56;99990.06;;;3.51;nan
8523;BME280;4299;42.202;24.736;2023-03-14T06:29:24;99986.50;;;3.56;nan
8523;BME280;4299;42.202;24.736;2023-03-14T06:31:50;99991.63;;;3.62;nan
8523;BME280;4299;42.202;24.736;2023-03-14T06:34:17;99984.38;;;3.73;nan
8523;BME280;4299;42.202;24.736;2023-03-14T06:36:44;99982.44;;;3.84;nan
8523;BME280;4299;42.202;24.736;2023-03-14T06:39:10;99989.22;;;3.94;nan
8523;BME280;4299;42.202;24.736;2023-03-14T06:41:37;99990.81;;;4.01;nan
8523;BME280;4299;42.202;24.736;2023-03-14T06:44:04;99990.53;;;4.13;nan
8523;BME280;4299;42.202;24.736;2023-03-14T06:46:32;99990.34;;;4.22;nan
8523;BME280;4299;42.202;24.736;2023-03-14T06:48:59;99994.44;;;4.34;nan
8523;BME280;4299;42.202;24.736;2023-03-14T06:51:26;99986.44;;;4.39;nan
8523;BME280;4299;42.202;24.736;2023-03-14T06:53:52;99989.75;;;4.47;nan
8523;BME280;4299;42.202;24.736;2023-03-14T06:56:19;99986.25;;;4.48;nan
8523;BME280;4299;42.202;24.736;2023-03-14T06:58:46;99978.31;;;4.51;nan
8523;BME280;4299;42.202;24.736;2023-03-14T07:01:20;99981.66;;;4.56;nan
8523;BME280;4299;42.202;24.736;2023-03-14T07:03:48;99984.16;;;4.62;nan
8523;BME280;4299;42.202;24.736;2023-03-14T07:06:15;99973.66;;;4.62;nan
8523;BME280;4299;42.202;24.736;2023-03-14T07:08:42;99974.41;;;4.67;nan
8523;BME280;4299;42.202;24.736;2023-03-14T07:11:09;99961.19;;;4.70;nan
8523;BME280;4299;42.202;24.736;2023-03-14T07:13:36;99967.09;;;4.80;nan
8523;BME280;4299;42.202;24.736;2023-03-14T07:16:04;99953.66;;;4.90;nan
8523;BME280;4299;42.202;24.736;2023-03-14T07:18:31;99949.91;;;5.00;nan
8523;BME280;4299;42.202;24.736;2023-03-14T07:20:59;99946.28;;;5.04;nan
8523;BME280;4299;42.202;24.736;2023-03-14T07:23:25;99944.09;;;5.22;nan
8523;BME280;4299;42.202;24.736;2023-03-14T07:25:52;99934.28;;;5.27;nan
8523;BME280;4299;42.202;24.736;2023-03-14T07:28:19;99945.47;;;5.35;nan
8523;BME280;4299;42.202;24.736;2023-03-14T07:30:46;99929.69;;;5.35;nan
8523;BME280;4299;42.202;24.736;2023-03-14T07:33:13;99933.09;;;5.40;nan
8523;BME280;4299;42.202;24.736;2023-03-14T07:35:40;99938.06;;;5.49;nan
8523;BME280;4299;42.202;24.736;2023-03-14T07:38:08;99942.31;;;5.55;nan
8523;BME280;4299;42.202;24.736;2023-03-14T07:40:35;99937.72;;;5.61;nan
8523;BME280;4299;42.202;24.736;2023-03-14T07:43:01;99935.91;;;5.63;nan
8523;BME280;4299;42.202;24.736;2023-03-14T07:45:28;99944.34;;;5.74;nan
8523;BME280;4299;42.202;24.736;2023-03-14T07:47:55;99932.69;;;5.83;nan
8523;BME280;4299;42.202;24.736;2023-03-14T07:50:22;99933.41;;;5.90;nan
8523;BME280;4299;42.202;24.736;2023-03-14T07:52:50;99928.59;;;6.04;nan
8523;BME280;4299;42.202;24.736;2023-03-14T07:55:18;99926.63;;;6.10;nan
8523;BME280;4299;42.202;24.736;2023-03-14T07:57:45;99916.69;;;6.20;nan
8523;BME280;4299;42.202;24.736;2023-03-14T08:00:14;99926.91;;;6.29;nan
8523;BME280;4299;42.202;24.736;2023-03-14T08:02:41;99923.06;;;6.39;nan
8523;BME280;4299;42.202;24.736;2023-03-14T08:05:09;99925.72;;;6.39;nan
8523;BME280;4299;42.202;24.736;2023-03-14T08:07:35;99924.50;;;6.49;nan
8523;BME280;4299;42.202;24.736;2023-03-14T08:10:03;99920.44;;;6.65;nan
8523;BME280;4299;42.202;24.736;2023-03-14T08:12:31;99917.47;;;6.76;nan
8523;BME280;4299;42.202;24.736;2023-03-14T08:14:58;99916.06;;;6.91;nan
8523;BME280;4299;42.202;24.736;2023-03-14T08:17:25;99912.09;;;7.04;nan
8523;BME280;4299;42.202;24.736;2023-03-14T08:19:52;99920.50;;;7.15;nan
8523;BME280;4299;42.202;24.736;2023-03-14T08:22:19;99923.72;;;7.23;nan
8523;BME280;4299;42.202;24.736;2023-03-14T08:24:46;99921.88;;;7.25;nan
8523;BME280;4299;42.202;24.736;2023-03-14T08:27:12;99916.75;;;7.22;nan
8523;BME280;4299;42.202;24.736;2023-03-14T08:29:41;99908.00;;;7.20;nan
8523;BME280;4299;42.202;24.736;2023-03-14T08:32:09;99906.28;;;7.19;nan
8523;BME280;4299;42.202;24.736;2023-03-14T08:34:35;99900.69;;;7.28;nan
8523;BME280;4299;42.202;24.736;2023-03-14T08:37:02;99907.13;;;7.45;nan
8523;BME280;4299;42.202;24.736;2023-03-14T08:39:29;99885.44;;;7.60;nan
8523;BME280;4299;42.202;24.736;2023-03-14T08:41:56;99891.47;;;7.63;nan
8523;BME280;4299;42.202;24.736;2023-03-14T08:44:23;99894.06;;;7.65;nan
8523;BME280;4299;42.202;24.736;2023-03-14T08:46:51;99890.50;;;7.66;nan
8523;BME280;4299;42.202;24.736;2023-03-14T08:49:17;99882.41;;;7.70;nan
8523;BME280;4299;42.202;24.736;2023-03-14T08:51:44;99882.00;;;7.81;nan
8523;BME280;4299;42.202;24.736;2023-03-14T08:54:11;99893.09;;;7.89;nan
8523;BME280;4299;42.202;24.736;2023-03-14T08:56:37;99871.63;;;7.98;nan
8523;BME280;4299;42.202;24.736;2023-03-14T08:59:04;99870.53;;;8.04;nan
8523;BME280;4299;42.202;24.736;2023-03-14T09:01:31;99858.28;;;8.03;nan
8523;BME280;4299;42.202;24.736;2023-03-14T09:03:59;99850.66;;;7.95;nan
8523;BME280;4299;42.202;24.736;2023-03-14T09:06:26;99847.88;;;7.98;nan
8523;BME280;4299;42.202;24.736;2023-03-14T09:08:53;99851.75;;;8.11;nan
8523;BME280;4299;42.202;24.736;2023-03-14T09:11:20;99838.72;;;8.29;nan
8523;BME280;4299;42.202;24.736;2023-03-14T09:13:46;99835.53;;;8.42;nan
8523;BME280;4299;42.202;24.736;2023-03-14T09:16:14;99832.41;;;8.54;nan
8523;BME280;4299;42.202;24.736;2023-03-14T09:18:40;99838.41;;;8.58;nan
8523;BME280;4299;42.202;24.736;2023-03-14T09:21:08;99836.56;;;8.60;nan
8523;BME280;4299;42.202;24.736;2023-03-14T09:23:35;99830.09;;;8.67;nan
8523;BME280;4299;42.202;24.736;2023-03-14T09:26:02;99817.53;;;8.72;nan
8523;BME280;4299;42.202;24.736;2023-03-14T09:28:28;99813.09;;;8.73;nan
8523;BME280;4299;42.202;24.736;2023-03-14T09:30:55;99804.97;;;8.77;nan
8523;BME280;4299;42.202;24.736;2023-03-14T09:33:23;99800.34;;;8.82;nan
8523;BME280;4299;42.202;24.736;2023-03-14T09:35:50;99796.22;;;8.95;nan
8523;BME280;4299;42.202;24.736;2023-03-14T09:38:17;99788.16;;;8.98;nan
8523;BME280;4299;42.202;24.736;2023-03-14T09:40:45;99795.75;;;9.06;nan
8523;BME280;4299;42.202;24.736;2023-03-14T09:43:14;99780.47;;;9.13;nan
8523;BME280;4299;42.202;24.736;2023-03-14T09:45:43;99782.19;;;9.32;nan
8523;BME280;4299;42.202;24.736;2023-03-14T09:48:15;99770.47;;;9.38;nan
8523;BME280;4299;42.202;24.736;2023-03-14T09:50:43;99776.19;;;9.48;nan
8523;BME280;4299;42.202;24.736;2023-03-14T09:53:14;99774.59;;;9.44;nan
8523;BME280;4299;42.202;24.736;2023-03-14T09:55:45;99781.91;;;9.57;nan
8523;BME280;4299;42.202;24.736;2023-03-14T09:58:15;99774.44;;;9.65;nan
8523;BME280;4299;42.202;24.736;2023-03-14T10:00:42;99769.03;;;9.68;nan
8523;BME280;4299;42.202;24.736;2023-03-14T10:03:25;99767.16;;;9.70;nan
8523;BME280;4299;42.202;24.736;2023-03-14T10:05:54;99765.00;;;9.79;nan
8523;BME280;4299;42.202;24.736;2023-03-14T10:08:22;99757.25;;;9.93;nan
8523;BME280;4299;42.202;24.736;2023-03-14T10:10:50;99747.75;;;10.06;nan
8523;BME280;4299;42.202;24.736;2023-03-14T10:13:20;99734.72;;;10.20;nan
8523;BME280;4299;42.202;24.736;2023-03-14T10:15:52;99737.84;;;10.28;nan
8523;BME280;4299;42.202;24.736;2023-03-14T10:18:21;99730.19;;;10.39;nan
8523;BME280;4299;42.202;24.736;2023-03-14T10:20:52;99728.19;;;10.44;nan
8523;BME280;4299;42.202;24.736;2023-03-14T10:23:29;99710.38;;;10.46;nan
8523;BME280;4299;42.202;24.736;2023-03-14T10:26:05;99717.25;;;10.50;nan
8523;BME280;4299;42.202;24.736;2023-03-14T10:28:33;99713.81;;;10.48;nan
8523;BME280;4299;42.202;24.736;2023-03-14T10:31:03;99706.78;;;10.47;nan
8523;BME280;4299;42.202;24.736;2023-03-14T10:33:32;99694.00;;;10.56;nan
8523;BME280;4299;42.202;24.736;2023-03-14T10:36:00;99694.91;;;10.72;nan
8523;BME280;4299;42.202;24.736;2023-03-14T10:38:29;99697.69;;;10.86;nan
8523;BME280;4299;42.202;24.736;2023-03-14T10:40:56;99684.34;;;11.03;nan
8523;BME280;4299;42.202;24.736;2023-03-14T10:43:27;99671.50;;;11.11;nan
8523;BME280;4299;42.202;24.736;2023-03-14T10:45:58;99667.91;;;11.12;nan
8523;BME280;4299;42.202;24.736;2023-03-14T10:48:31;99660.31;;;11.06;nan
8523;BME280;4299;42.202;24.736;2023-03-14T10:51:04;99652.00;;;11.12;nan
8523;BME280;4299;42.202;24.736;2023-03-14T10:53:40;99637.09;;;11.25;nan
8523;BME280;4299;42.202;24.736;2023-03-14T10:56:07;99639.50;;;11.46;nan
8523;BME280;4299;42.202;24.736;2023-03-14T10:58:41;99639.00;;;11.69;nan
8523;BME280;4299;42.202;24.736;2023-03-14T11:01:21;99631.22;;;11.66;nan
8523;BME280;4299;42.202;24.736;2023-03-14T11:03:54;99621.91;;;11.59;nan
8523;BME280;4299;42.202;24.736;2023-03-14T11:06:28;99611.53;;;11.54;nan
8523;BME280;4299;42.202;24.736;2023-03-14T11:09:01;99601.44;;;11.61;nan
8523;BME280;4299;42.202;24.736;2023-03-14T11:11:32;99594.44;;;11.60;nan
8523;BME280;4299;42.202;24.736;2023-03-14T11:14:08;99592.50;;;11.62;nan
8523;BME280;4299;42.202;24.736;2023-03-14T11:16:49;99587.03;;;11.65;nan
8523;BME280;4299;42.202;24.736;2023-03-14T11:19:27;99562.78;;;11.71;nan
8523;BME280;4299;42.202;24.736;2023-03-14T11:22:00;99561.53;;;12.06;nan
8523;BME280;4299;42.202;24.736;2023-03-14T11:24:39;99547.31;;;12.36;nan
8523;BME280;4299;42.202;24.736;2023-03-14T11:27:16;99550.06;;;12.34;nan
8523;BME280;4299;42.202;24.736;2023-03-14T11:29:53;99545.78;;;12.32;nan
8523;BME280;4299;42.202;24.736;2023-03-14T11:32:28;99540.66;;;12.29;nan
8523;BME280;4299;42.202;24.736;2023-03-14T11:34:59;99526.81;;;12.38;nan
8523;BME280;4299;42.202;24.736;2023-03-14T11:37:33;99515.63;;;12.33;nan
8523;BME280;4299;42.202;24.736;2023-03-14T11:40:06;99503.28;;;12.32;nan
8523;BME280;4299;42.202;24.736;2023-03-14T11:42:35;99510.09;;;12.36;nan
8523;BME280;4299;42.202;24.736;2023-03-14T11:45:05;99489.44;;;12.27;nan
8523;BME280;4299;42.202;24.736;2023-03-14T11:47:41;99491.09;;;12.28;nan
8523;BME280;4299;42.202;24.736;2023-03-14T11:50:16;99469.66;;;12.31;nan
8523;BME280;4299;42.202;24.736;2023-03-14T11:52:48;99461.09;;;12.40;nan
8523;BME280;4299;42.202;24.736;2023-03-14T11:55:19;99456.84;;;12.64;nan
8523;BME280;4299;42.202;24.736;2023-03-14T11:57:48;99458.22;;;12.84;nan
8523;BME280;4299;42.202;24.736;2023-03-14T12:00:19;99441.59;;;12.80;nan
8523;BME280;4299;42.202;24.736;2023-03-14T12:02:51;99434.97;;;12.73;nan
8523;BME280;4299;42.202;24.736;2023-03-14T12:05:37;99426.94;;;12.87;nan
8523;BME280;4299;42.202;24.736;2023-03-14T12:08:43;99418.88;;;13.02;nan
8523;BME280;4299;42.202;24.736;2023-03-14T12:11:19;99408.34;;;13.27;nan
8523;BME280;4299;42.202;24.736;2023-03-14T12:13:49;99393.84;;;13.31;nan
8523;BME280;4299;42.202;24.736;2023-03-14T12:16:32;99395.44;;;13.46;nan
8523;BME280;4299;42.202;24.736;2023-03-14T12:19:14;99380.41;;;13.45;nan
8523;BME280;4299;42.202;24.736;2023-03-14T12:21:48;99385.31;;;13.26;nan
8523;BME280;4299;42.202;24.736;2023-03-14T12:24:18;99381.72;;;13.40;nan
8523;BME280;4299;42.202;24.736;2023-03-14T12:26:53;99376.16;;;13.55;nan
8523;BME280;4299;42.202;24.736;2023-03-14T12:29:20;99370.19;;;13.77;nan
8523;BME280;4299;42.202;24.736;2023-03-14T12:31:49;99367.78;;;13.98;nan
8523;BME280;4299;42.202;24.736;2023-03-14T12:34:33;99355.16;;;14.13;nan
8523;BME280;4299;42.202;24.736;2023-03-14T12:37:06;99352.16;;;14.17;nan
8523;BME280;4299;42.202;24.736;2023-03-14T12:39:45;99351.19;;;14.18;nan
8523;BME280;4299;42.202;24.736;2023-03-14T12:42:18;99352.53;;;14.36;nan
8523;BME280;4299;42.202;24.736;2023-03-14T12:44:48;99347.41;;;14.33;nan
8523;BME280;4299;42.202;24.736;2023-03-14T12:47:52;99351.50;;;14.26;nan
8523;BME280;4299;42.202;24.736;2023-03-14T12:50:24;99345.16;;;14.16;nan
8523;BME280;4299;42.202;24.736;2023-03-14T12:53:12;99334.25;;;14.19;nan
8523;BME280;4299;42.202;24.736;2023-03-14T12:55:47;99328.75;;;14.33;nan
8523;BME280;4299;42.202;24.736;2023-03-14T12:58:20;99332.06;;;14.37;nan
8523;BME280;4299;42.202;24.736;2023-03-14T13:00:54;99334.81;;;14.35;nan
8523;BME280;4299;42.202;24.736;2023-03-14T13:03:25;99327.38;;;14.28;nan
8523;BME280;4299;42.202;24.736;2023-03-14T13:05:55;99326.81;;;14.12;nan
8523;BME280;4299;42.202;24.736;2023-03-14T13:08:34;99328.56;;;14.00;nan
8523;BME280;4299;42.202;24.736;2023-03-14T13:11:04;99314.03;;;14.04;nan
8523;BME280;4299;42.202;24.736;2023-03-14T13:13:34;99316.31;;;14.21;nan
8523;BME280;4299;42.202;24.736;2023-03-14T13:16:01;99310.72;;;14.37;nan
8523;BME280;4299;42.202;24.736;2023-03-14T13:18:34;99308.22;;;14.47;nan
8523;BME280;4299;42.202;24.736;2023-03-14T13:21:03;99295.03;;;14.32;nan
8523;BME280;4299;42.202;24.736;2023-03-14T13:23:33;99291.94;;;14.15;nan
8523;BME280;4299;42.202;24.736;2023-03-14T13:26:01;99287.91;;;14.09;nan
8523;BME280;4299;42.202;24.736;2023-03-14T13:28:29;99285.66;;;14.16;nan
8523;BME280;4299;42.202;24.736;2023-03-14T13:30:59;99279.28;;;14.29;nan
8523;BME280;4299;42.202;24.736;2023-03-14T13:33:27;99281.50;;;14.35;nan
8523;BME280;4299;42.202;24.736;2023-03-14T13:35:59;99278.06;;;14.46;nan
8523;BME280;4299;42.202;24.736;2023-03-14T13:38:29;99270.66;;;14.38;nan
8523;BME280;4299;42.202;24.736;2023-03-14T13:40:58;99264.84;;;14.45;nan
8523;BME280;4299;42.202;24.736;2023-03-14T13:43:29;99248.84;;;14.45;nan
8523;BME280;4299;42.202;24.736;2023-03-14T13:46:02;99247.41;;;14.52;nan
8523;BME280;4299;42.202;24.736;2023-03-14T13:48:31;99239.69;;;14.60;nan